sensor_id;sensor_type;location;lat;lon;timestamp;P1;durP1;ratioP1;P2;durP2;ratioP2
20671;SDS011;10495;50.922;4.760;2023-10-09T00:02:21;3.73;;;2.23;;
20671;SDS011;10495;50.922;4.760;2023-10-09T00:04:48;4.83;;;3.00;;
20671;SDS011;10495;50.922;4.760;2023-10-09T00:07:16;4.23;;;2.03;;
20671;SDS011;10495;50.922;4.760;2023-10-09T00:09:42;5.63;;;2.60;;
20671;SDS011;10495;50.922;4.760;2023-10-09T00:12:19;5.87;;;3.50;;
20671;SDS011;10495;50.922;4.760;2023-10-09T00:14:48;3.03;;;2.10;;
20671;SDS011;10495;50.922;4.760;2023-10-09T00:17:18;7.47;;;2.40;;
20671;SDS011;10495;50.922;4.760;2023-10-09T00:19:45;2.23;;;1.73;;
20671;SDS011;10495;50.922;4.760;2023-10-09T00:22:12;3.47;;;2.13;;
20671;SDS011;10495;50.922;4.760;2023-10-09T00:24:56;9.13;;;2.47;;
20671;SDS011;10495;50.922;4.760;2023-10-09T00:27:46;3.83;;;2.03;;
20671;SDS011;10495;50.922;4.760;2023-10-09T00:30:14;2.30;;;1.73;;
20671;SDS011;10495;50.922;4.760;2023-10-09T00:32:44;3.20;;;2.47;;
20671;SDS011;10495;50.922;4.760;2023-10-09T00:35:24;3.17;;;2.33;;
20671;SDS011;10495;50.922;4.760;2023-10-09T00:38:22;2.60;;;2.07;;
20671;SDS011;10495;50.922;4.760;2023-10-09T00:40:52;3.80;;;2.20;;
20671;SDS011;10495;50.922;4.760;2023-10-09T00:43:33;3.30;;;2.20;;
20671;SDS011;10495;50.922;4.760;2023-10-09T00:46:01;2.87;;;2.00;;
20671;SDS011;10495;50.922;4.760;2023-10-09T00:48:29;4.50;;;2.10;;
20671;SDS011;10495;50.922;4.760;2023-10-09T00:50:58;3.93;;;2.17;;
20671;SDS011;10495;50.922;4.760;2023-10-09T00:53:26;4.37;;;2.03;;
20671;SDS011;10495;50.922;4.760;2023-10-09T00:56:01;2.17;;;1.83;;
20671;SDS011;10495;50.922;4.760;2023-10-09T00:58:46;2.13;;;1.90;;
20671;SDS011;10495;50.922;4.760;2023-10-09T01:01:14;4.90;;;2.00;;
20671;SDS011;10495;50.922;4.760;2023-10-09T01:03:42;3.93;;;2.50;;
20671;SDS011;10495;50.922;4.760;2023-10-09T01:06:15;3.43;;;2.33;;
20671;SDS011;10495;50.922;4.760;2023-10-09T01:08:41;4.07;;;2.53;;
20671;SDS011;10495;50.922;4.760;2023-10-09T01:11:11;2.87;;;2.03;;
20671;SDS011;10495;50.922;4.760;2023-10-09T01:13:44;3.87;;;2.20;;
20671;SDS011;10495;50.922;4.760;2023-10-09T01:16:13;4.13;;;2.50;;
20671;SDS011;10495;50.922;4.760;2023-10-09T01:21:09;3.27;;;2.23;;
20671;SDS011;10495;50.922;4.760;2023-10-09T01:23:43;3.40;;;2.03;;
20671;SDS011;10495;50.922;4.760;2023-10-09T01:26:31;2.57;;;2.30;;
20671;SDS011;10495;50.922;4.760;2023-10-09T01:29:04;2.40;;;2.03;;
20671;SDS011;10495;50.922;4.760;2023-10-09T01:31:52;6.17;;;2.40;;
20671;SDS011;10495;50.922;4.760;2023-10-09T01:34:22;3.67;;;2.23;;
20671;SDS011;10495;50.922;4.760;2023-10-09T01:37:24;5.73;;;2.03;;
20671;SDS011;10495;50.922;4.760;2023-10-09T01:39:56;4.67;;;2.77;;
20671;SDS011;10495;50.922;4.760;2023-10-09T01:42:24;8.30;;;2.80;;
20671;SDS011;10495;50.922;4.760;2023-10-09T01:45:10;4.17;;;1.90;;
20671;SDS011;10495;50.922;4.760;2023-10-09T01:47:36;4.40;;;2.47;;
20671;SDS011;10495;50.922;4.760;2023-10-09T01:50:05;4.73;;;2.50;;
20671;SDS011;10495;50.922;4.760;2023-10-09T01:52:45;2.73;;;2.23;;
20671;SDS011;10495;50.922;4.760;2023-10-09T01:55:11;4.77;;;2.60;;
20671;SDS011;10495;50.922;4.760;2023-10-09T01:58:00;3.50;;;2.40;;
20671;SDS011;10495;50.922;4.760;2023-10-09T02:00:55;4.77;;;2.33;;
20671;SDS011;10495;50.922;4.760;2023-10-09T02:03:22;3.30;;;2.43;;
20671;SDS011;10495;50.922;4.760;2023-10-09T02:05:54;6.10;;;2.90;;
20671;SDS011;10495;50.922;4.760;2023-10-09T02:08:24;3.80;;;2.57;;
20671;SDS011;10495;50.922;4.760;2023-10-09T02:10:52;3.93;;;1.90;;
20671;SDS011;10495;50.922;4.760;2023-10-09T02:13:21;3.57;;;1.63;;
20671;SDS011;10495;50.922;4.760;2023-10-09T02:15:55;2.93;;;2.20;;
20671;SDS011;10495;50.922;4.760;2023-10-09T02:18:37;4.27;;;2.37;;
20671;SDS011;10495;50.922;4.760;2023-10-09T02:23:50;3.77;;;2.40;;
20671;SDS011;10495;50.922;4.760;2023-10-09T02:26:17;3.77;;;1.97;;
20671;SDS011;10495;50.922;4.760;2023-10-09T02:29:05;7.63;;;2.93;;
20671;SDS011;10495;50.922;4.760;2023-10-09T02:31:31;4.60;;;1.97;;
20671;SDS011;10495;50.922;4.760;2023-10-09T02:34:08;2.23;;;1.77;;
20671;SDS011;10495;50.922;4.760;2023-10-09T02:36:35;2.57;;;1.83;;
20671;SDS011;10495;50.922;4.760;2023-10-09T02:39:06;3.90;;;1.87;;
20671;SDS011;10495;50.922;4.760;2023-10-09T02:41:51;2.40;;;1.40;;
20671;SDS011;10495;50.922;4.760;2023-10-09T02:44:20;5.13;;;2.43;;
20671;SDS011;10495;50.922;4.760;2023-10-09T02:46:49;4.63;;;2.40;;
20671;SDS011;10495;50.922;4.760;2023-10-09T02:49:15;3.57;;;2.00;;
20671;SDS011;10495;50.922;4.760;2023-10-09T02:51:41;2.57;;;2.20;;
20671;SDS011;10495;50.922;4.760;2023-10-09T02:54:13;5.47;;;2.37;;
20671;SDS011;10495;50.922;4.760;2023-10-09T02:56:48;3.23;;;1.57;;
20671;SDS011;10495;50.922;4.760;2023-10-09T02:59:20;2.57;;;1.80;;
20671;SDS011;10495;50.922;4.760;2023-10-09T03:01:47;1.90;;;1.50;;
20671;SDS011;10495;50.922;4.760;2023-10-09T03:04:13;3.23;;;1.90;;
20671;SDS011;10495;50.922;4.760;2023-10-09T03:06:40;3.23;;;1.53;;
20671;SDS011;10495;50.922;4.760;2023-10-09T03:09:24;4.07;;;1.70;;
20671;SDS011;10495;50.922;4.760;2023-10-09T03:11:54;3.17;;;1.70;;
20671;SDS011;10495;50.922;4.760;2023-10-09T03:14:27;4.93;;;2.57;;
20671;SDS011;10495;50.922;4.760;2023-10-09T03:16:53;5.63;;;3.23;;
20671;SDS011;10495;50.922;4.760;2023-10-09T03:19:21;4.33;;;2.13;;
20671;SDS011;10495;50.922;4.760;2023-10-09T03:21:47;4.80;;;2.57;;
20671;SDS011;10495;50.922;4.760;2023-10-09T03:24:13;5.37;;;2.67;;
20671;SDS011;10495;50.922;4.760;2023-10-09T03:26:40;4.30;;;2.37;;
20671;SDS011;10495;50.922;4.760;2023-10-09T03:29:09;2.47;;;1.77;;
20671;SDS011;10495;50.922;4.760;2023-10-09T03:31:38;4.80;;;2.70;;
20671;SDS011;10495;50.922;4.760;2023-10-09T03:34:04;3.37;;;2.10;;
20671;SDS011;10495;50.922;4.760;2023-10-09T03:36:31;3.60;;;2.10;;
20671;SDS011;10495;50.922;4.760;2023-10-09T03:39:02;4.53;;;2.13;;
20671;SDS011;10495;50.922;4.760;2023-10-09T03:41:33;3.60;;;2.23;;
20671;SDS011;10495;50.922;4.760;2023-10-09T03:44:05;3.57;;;2.17;;
20671;SDS011;10495;50.922;4.760;2023-10-09T03:46:31;5.00;;;2.73;;
20671;SDS011;10495;50.922;4.760;2023-10-09T03:49:01;3.23;;;1.73;;
20671;SDS011;10495;50.922;4.760;2023-10-09T03:51:35;4.47;;;1.97;;
20671;SDS011;10495;50.922;4.760;2023-10-09T03:54:02;3.03;;;1.60;;
20671;SDS011;10495;50.922;4.760;2023-10-09T03:56:32;3.97;;;2.17;;
20671;SDS011;10495;50.922;4.760;2023-10-09T03:59:01;3.87;;;2.07;;
20671;SDS011;10495;50.922;4.760;2023-10-09T04:01:29;3.30;;;1.83;;
20671;SDS011;10495;50.922;4.760;2023-10-09T04:06:24;2.10;;;1.70;;
20671;SDS011;10495;50.922;4.760;2023-10-09T04:08:56;4.73;;;2.70;;
20671;SDS011;10495;50.922;4.760;2023-10-09T04:11:24;3.73;;;2.07;;
20671;SDS011;10495;50.922;4.760;2023-10-09T04:13:50;4.93;;;2.67;;
20671;SDS011;10495;50.922;4.760;2023-10-09T04:16:17;5.63;;;2.77;;
20671;SDS011;10495;50.922;4.760;2023-10-09T04:18:55;3.40;;;2.00;;
20671;SDS011;10495;50.922;4.760;2023-10-09T04:21:33;2.77;;;2.00;;
20671;SDS011;10495;50.922;4.760;2023-10-09T04:24:06;3.47;;;2.50;;
20671;SDS011;10495;50.922;4.760;2023-10-09T04:26:39;6.03;;;2.67;;
20671;SDS011;10495;50.922;4.760;2023-10-09T04:29:09;2.00;;;1.80;;
20671;SDS011;10495;50.922;4.760;2023-10-09T04:31:55;3.07;;;1.97;;
20671;SDS011;10495;50.922;4.760;2023-10-09T04:34:25;4.50;;;3.00;;
20671;SDS011;10495;50.922;4.760;2023-10-09T04:36:57;3.63;;;2.60;;
20671;SDS011;10495;50.922;4.760;2023-10-09T04:39:28;3.93;;;2.30;;
20671;SDS011;10495;50.922;4.760;2023-10-09T04:41:58;4.33;;;2.70;;
20671;SDS011;10495;50.922;4.760;2023-10-09T04:44:42;6.40;;;2.57;;
20671;SDS011;10495;50.922;4.760;2023-10-09T04:47:32;3.43;;;2.23;;
20671;SDS011;10495;50.922;4.760;2023-10-09T04:50:03;4.97;;;2.73;;
20671;SDS011;10495;50.922;4.760;2023-10-09T04:52:33;4.70;;;3.10;;
20671;SDS011;10495;50.922;4.760;2023-10-09T04:54:59;4.23;;;2.93;;
20671;SDS011;10495;50.922;4.760;2023-10-09T05:00:14;4.10;;;2.37;;
20671;SDS011;10495;50.922;4.760;2023-10-09T05:02:50;4.53;;;2.37;;
20671;SDS011;10495;50.922;4.760;2023-10-09T05:05:20;3.53;;;2.60;;
20671;SDS011;10495;50.922;4.760;2023-10-09T05:08:04;5.23;;;3.07;;
20671;SDS011;10495;50.922;4.760;2023-10-09T05:10:50;4.27;;;2.43;;
20671;SDS011;10495;50.922;4.760;2023-10-09T05:13:22;7.43;;;3.57;;
20671;SDS011;10495;50.922;4.760;2023-10-09T05:18:50;3.07;;;1.80;;
20671;SDS011;10495;50.922;4.760;2023-10-09T05:21:32;4.07;;;3.03;;
20671;SDS011;10495;50.922;4.760;2023-10-09T05:24:08;4.53;;;3.13;;
20671;SDS011;10495;50.922;4.760;2023-10-09T05:26:48;5.17;;;3.17;;
20671;SDS011;10495;50.922;4.760;2023-10-09T05:29:18;4.27;;;2.37;;
20671;SDS011;10495;50.922;4.760;2023-10-09T05:31:58;5.47;;;3.03;;
20671;SDS011;10495;50.922;4.760;2023-10-09T05:34:30;6.30;;;3.53;;
20671;SDS011;10495;50.922;4.760;2023-10-09T05:37:02;4.90;;;2.93;;
20671;SDS011;10495;50.922;4.760;2023-10-09T05:39:47;2.90;;;2.33;;
20671;SDS011;10495;50.922;4.760;2023-10-09T05:42:26;3.93;;;2.60;;
20671;SDS011;10495;50.922;4.760;2023-10-09T05:45:08;4.50;;;2.83;;
20671;SDS011;10495;50.922;4.760;2023-10-09T05:47:47;3.50;;;2.90;;
20671;SDS011;10495;50.922;4.760;2023-10-09T05:50:26;2.97;;;2.10;;
20671;SDS011;10495;50.922;4.760;2023-10-09T05:52:53;5.00;;;2.67;;
20671;SDS011;10495;50.922;4.760;2023-10-09T05:55:29;6.77;;;3.33;;
20671;SDS011;10495;50.922;4.760;2023-10-09T05:58:33;4.47;;;2.90;;
20671;SDS011;10495;50.922;4.760;2023-10-09T06:01:27;2.83;;;2.10;;
20671;SDS011;10495;50.922;4.760;2023-10-09T06:04:12;9.47;;;2.87;;
20671;SDS011;10495;50.922;4.760;2023-10-09T06:06:40;5.70;;;3.30;;
20671;SDS011;10495;50.922;4.760;2023-10-09T06:09:20;3.83;;;2.93;;
20671;SDS011;10495;50.922;4.760;2023-10-09T06:11:47;5.70;;;2.57;;
20671;SDS011;10495;50.922;4.760;2023-10-09T06:14:17;2.50;;;1.90;;
20671;SDS011;10495;50.922;4.760;2023-10-09T06:16:53;5.43;;;3.27;;
20671;SDS011;10495;50.922;4.760;2023-10-09T06:19:22;7.10;;;4.10;;
20671;SDS011;10495;50.922;4.760;2023-10-09T06:21:58;4.83;;;3.33;;
20671;SDS011;10495;50.922;4.760;2023-10-09T06:24:36;4.57;;;2.97;;
20671;SDS011;10495;50.922;4.760;2023-10-09T06:27:02;4.50;;;3.17;;
20671;SDS011;10495;50.922;4.760;2023-10-09T06:29:31;5.27;;;3.43;;
20671;SDS011;10495;50.922;4.760;2023-10-09T06:32:09;2.70;;;2.27;;
20671;SDS011;10495;50.922;4.760;2023-10-09T06:34:58;3.37;;;2.20;;
20671;SDS011;10495;50.922;4.760;2023-10-09T06:37:44;5.43;;;3.17;;
20671;SDS011;10495;50.922;4.760;2023-10-09T06:43:19;4.07;;;2.03;;
20671;SDS011;10495;50.922;4.760;2023-10-09T06:45:58;5.00;;;2.90;;
20671;SDS011;10495;50.922;4.760;2023-10-09T06:48:43;4.60;;;2.40;;
20671;SDS011;10495;50.922;4.760;2023-10-09T06:51:22;5.07;;;2.27;;
20671;SDS011;10495;50.922;4.760;2023-10-09T06:53:48;7.07;;;3.97;;
20671;SDS011;10495;50.922;4.760;2023-10-09T06:58:49;6.70;;;2.80;;
20671;SDS011;10495;50.922;4.760;2023-10-09T07:01:20;4.20;;;2.57;;
20671;SDS011;10495;50.922;4.760;2023-10-09T07:03:52;4.53;;;2.80;;
20671;SDS011;10495;50.922;4.760;2023-10-09T07:06:19;3.70;;;2.27;;
20671;SDS011;10495;50.922;4.760;2023-10-09T07:08:52;3.67;;;2.80;;
20671;SDS011;10495;50.922;4.760;2023-10-09T07:12:03;6.13;;;3.07;;
20671;SDS011;10495;50.922;4.760;2023-10-09T07:14:23;5.43;;;3.23;;
20671;SDS011;10495;50.922;4.760;2023-10-09T07:19:25;5.43;;;2.63;;
20671;SDS011;10495;50.922;4.760;2023-10-09T07:22:07;5.17;;;3.17;;
20671;SDS011;10495;50.922;4.760;2023-10-09T07:24:49;4.40;;;2.70;;
20671;SDS011;10495;50.922;4.760;2023-10-09T07:27:21;8.67;;;3.27;;
20671;SDS011;10495;50.922;4.760;2023-10-09T07:30:06;4.07;;;2.37;;
20671;SDS011;10495;50.922;4.760;2023-10-09T07:32:58;3.63;;;2.43;;
20671;SDS011;10495;50.922;4.760;2023-10-09T07:35:33;4.30;;;2.83;;
20671;SDS011;10495;50.922;4.760;2023-10-09T07:38:08;3.60;;;2.80;;
20671;SDS011;10495;50.922;4.760;2023-10-09T07:40:35;5.63;;;3.13;;
20671;SDS011;10495;50.922;4.760;2023-10-09T07:43:20;5.63;;;2.90;;
20671;SDS011;10495;50.922;4.760;2023-10-09T07:45:51;4.97;;;2.77;;
20671;SDS011;10495;50.922;4.760;2023-10-09T07:48:23;2.60;;;2.40;;
20671;SDS011;10495;50.922;4.760;2023-10-09T07:51:03;4.77;;;3.37;;
20671;SDS011;10495;50.922;4.760;2023-10-09T07:53:36;4.90;;;3.23;;
20671;SDS011;10495;50.922;4.760;2023-10-09T07:56:08;5.10;;;3.03;;
20671;SDS011;10495;50.922;4.760;2023-10-09T07:58:34;6.57;;;2.97;;
20671;SDS011;10495;50.922;4.760;2023-10-09T08:01:11;3.03;;;2.43;;
20671;SDS011;10495;50.922;4.760;2023-10-09T08:04:13;4.50;;;3.20;;
20671;SDS011;10495;50.922;4.760;2023-10-09T08:06:41;5.43;;;3.20;;
20671;SDS011;10495;50.922;4.760;2023-10-09T08:09:10;4.30;;;2.83;;
20671;SDS011;10495;50.922;4.760;2023-10-09T08:11:39;5.17;;;3.40;;
20671;SDS011;10495;50.922;4.760;2023-10-09T08:14:06;4.23;;;2.73;;
20671;SDS011;10495;50.922;4.760;2023-10-09T08:16:45;7.27;;;3.07;;
20671;SDS011;10495;50.922;4.760;2023-10-09T08:19:11;3.37;;;2.77;;
20671;SDS011;10495;50.922;4.760;2023-10-09T08:21:55;6.63;;;3.30;;
20671;SDS011;10495;50.922;4.760;2023-10-09T08:24:39;6.37;;;3.00;;
20671;SDS011;10495;50.922;4.760;2023-10-09T08:27:09;3.47;;;2.57;;
20671;SDS011;10495;50.922;4.760;2023-10-09T08:30:13;6.93;;;2.97;;
20671;SDS011;10495;50.922;4.760;2023-10-09T08:32:48;5.90;;;3.30;;
20671;SDS011;10495;50.922;4.760;2023-10-09T08:35:33;4.70;;;2.80;;
20671;SDS011;10495;50.922;4.760;2023-10-09T08:38:16;5.53;;;2.90;;
20671;SDS011;10495;50.922;4.760;2023-10-09T08:40:49;4.80;;;3.00;;
20671;SDS011;10495;50.922;4.760;2023-10-09T08:43:18;5.47;;;2.93;;
20671;SDS011;10495;50.922;4.760;2023-10-09T08:45:49;4.23;;;3.17;;
20671;SDS011;10495;50.922;4.760;2023-10-09T08:48:19;7.40;;;3.40;;
20671;SDS011;10495;50.922;4.760;2023-10-09T08:50:51;3.57;;;2.73;;
20671;SDS011;10495;50.922;4.760;2023-10-09T08:53:21;4.47;;;3.25;;
20671;SDS011;10495;50.922;4.760;2023-10-09T08:55:48;4.77;;;2.97;;
20671;SDS011;10495;50.922;4.760;2023-10-09T08:58:16;6.90;;;3.23;;
20671;SDS011;10495;50.922;4.760;2023-10-09T09:00:59;5.50;;;2.77;;
20671;SDS011;10495;50.922;4.760;2023-10-09T09:03:26;4.93;;;3.28;;
20671;SDS011;10495;50.922;4.760;2023-10-09T09:05:58;4.75;;;3.30;;
20671;SDS011;10495;50.922;4.760;2023-10-09T09:08:28;6.50;;;3.10;;
20671;SDS011;10495;50.922;4.760;2023-10-09T09:13:40;4.18;;;3.03;;
20671;SDS011;10495;50.922;4.760;2023-10-09T09:16:13;3.30;;;2.38;;
20671;SDS011;10495;50.922;4.760;2023-10-09T09:21:42;5.07;;;3.20;;
20671;SDS011;10495;50.922;4.760;2023-10-09T09:24:13;7.30;;;3.45;;
20671;SDS011;10495;50.922;4.760;2023-10-09T09:26:48;4.47;;;2.97;;
20671;SDS011;10495;50.922;4.760;2023-10-09T09:32:01;7.75;;;3.92;;
20671;SDS011;10495;50.922;4.760;2023-10-09T09:34:44;6.97;;;3.33;;
20671;SDS011;10495;50.922;4.760;2023-10-09T09:37:14;6.00;;;2.72;;
20671;SDS011;10495;50.922;4.760;2023-10-09T09:39:44;4.63;;;2.83;;
20671;SDS011;10495;50.922;4.760;2023-10-09T09:42:13;8.75;;;4.13;;
20671;SDS011;10495;50.922;4.760;2023-10-09T09:44:39;4.95;;;3.58;;
20671;SDS011;10495;50.922;4.760;2023-10-09T09:47:08;5.68;;;3.45;;
20671;SDS011;10495;50.922;4.760;2023-10-09T09:49:41;4.28;;;3.13;;
20671;SDS011;10495;50.922;4.760;2023-10-09T09:52:08;4.22;;;2.67;;
20671;SDS011;10495;50.922;4.760;2023-10-09T09:54:39;6.68;;;3.08;;
20671;SDS011;10495;50.922;4.760;2023-10-09T09:57:06;4.90;;;3.45;;
20671;SDS011;10495;50.922;4.760;2023-10-09T09:59:38;5.18;;;3.25;;
20671;SDS011;10495;50.922;4.760;2023-10-09T10:02:35;5.63;;;3.67;;
20671;SDS011;10495;50.922;4.760;2023-10-09T10:05:04;4.03;;;3.10;;
20671;SDS011;10495;50.922;4.760;2023-10-09T10:07:33;5.10;;;3.20;;
20671;SDS011;10495;50.922;4.760;2023-10-09T10:10:33;5.40;;;3.20;;
20671;SDS011;10495;50.922;4.760;2023-10-09T10:13:04;4.40;;;2.90;;
20671;SDS011;10495;50.922;4.760;2023-10-09T10:18:31;7.45;;;4.15;;
20671;SDS011;10495;50.922;4.760;2023-10-09T10:21:09;5.47;;;3.35;;
20671;SDS011;10495;50.922;4.760;2023-10-09T10:23:45;4.15;;;3.22;;
20671;SDS011;10495;50.922;4.760;2023-10-09T10:26:19;4.20;;;2.78;;
20671;SDS011;10495;50.922;4.760;2023-10-09T10:32:02;5.25;;;2.55;;
20671;SDS011;10495;50.922;4.760;2023-10-09T10:37:43;4.20;;;2.70;;
20671;SDS011;10495;50.922;4.760;2023-10-09T10:40:22;6.45;;;3.33;;
20671;SDS011;10495;50.922;4.760;2023-10-09T10:43:03;8.15;;;3.40;;
20671;SDS011;10495;50.922;4.760;2023-10-09T10:45:38;6.93;;;3.47;;
20671;SDS011;10495;50.922;4.760;2023-10-09T10:48:10;4.68;;;3.00;;
20671;SDS011;10495;50.922;4.760;2023-10-09T10:50:59;5.25;;;2.92;;
20671;SDS011;10495;50.922;4.760;2023-10-09T10:53:26;5.00;;;3.47;;
20671;SDS011;10495;50.922;4.760;2023-10-09T10:56:03;6.90;;;3.95;;
20671;SDS011;10495;50.922;4.760;2023-10-09T10:58:37;6.45;;;3.17;;
20671;SDS011;10495;50.922;4.760;2023-10-09T11:01:03;6.32;;;3.70;;
20671;SDS011;10495;50.922;4.760;2023-10-09T11:03:41;6.82;;;4.05;;
20671;SDS011;10495;50.922;4.760;2023-10-09T11:06:30;4.65;;;3.60;;
20671;SDS011;10495;50.922;4.760;2023-10-09T11:09:08;6.45;;;3.78;;
20671;SDS011;10495;50.922;4.760;2023-10-09T11:11:50;7.22;;;3.65;;
20671;SDS011;10495;50.922;4.760;2023-10-09T11:14:46;6.72;;;3.47;;
20671;SDS011;10495;50.922;4.760;2023-10-09T11:17:31;7.93;;;3.22;;
20671;SDS011;10495;50.922;4.760;2023-10-09T11:19:58;6.97;;;3.20;;
20671;SDS011;10495;50.922;4.760;2023-10-09T11:22:44;3.35;;;2.42;;
20671;SDS011;10495;50.922;4.760;2023-10-09T11:25:30;10.25;;;4.40;;
20671;SDS011;10495;50.922;4.760;2023-10-09T11:27:56;4.78;;;3.30;;
20671;SDS011;10495;50.922;4.760;2023-10-09T11:30:30;5.60;;;3.13;;
20671;SDS011;10495;50.922;4.760;2023-10-09T11:33:06;5.85;;;3.05;;
20671;SDS011;10495;50.922;4.760;2023-10-09T11:35:39;4.57;;;2.65;;
20671;SDS011;10495;50.922;4.760;2023-10-09T11:38:08;5.47;;;3.42;;
20671;SDS011;10495;50.922;4.760;2023-10-09T11:40:46;4.85;;;3.20;;
20671;SDS011;10495;50.922;4.760;2023-10-09T11:43:18;6.57;;;3.33;;
20671;SDS011;10495;50.922;4.760;2023-10-09T11:46:10;7.85;;;4.10;;
20671;SDS011;10495;50.922;4.760;2023-10-09T11:48:36;6.30;;;3.50;;
20671;SDS011;10495;50.922;4.760;2023-10-09T11:51:22;6.13;;;3.47;;
20671;SDS011;10495;50.922;4.760;2023-10-09T11:53:48;4.65;;;3.40;;
20671;SDS011;10495;50.922;4.760;2023-10-09T11:56:22;6.15;;;3.38;;
20671;SDS011;10495;50.922;4.760;2023-10-09T11:58:52;5.75;;;4.45;;
20671;SDS011;10495;50.922;4.760;2023-10-09T12:01:18;5.57;;;3.40;;
20671;SDS011;10495;50.922;4.760;2023-10-09T12:03:49;4.60;;;2.92;;
20671;SDS011;10495;50.922;4.760;2023-10-09T12:06:16;5.60;;;3.22;;
20671;SDS011;10495;50.922;4.760;2023-10-09T12:08:44;7.22;;;3.58;;
20671;SDS011;10495;50.922;4.760;2023-10-09T12:11:14;6.05;;;3.40;;
20671;SDS011;10495;50.922;4.760;2023-10-09T12:13:54;21.60;;;3.85;;
20671;SDS011;10495;50.922;4.760;2023-10-09T12:16:23;7.38;;;3.40;;
20671;SDS011;10495;50.922;4.760;2023-10-09T12:18:53;6.38;;;3.60;;
20671;SDS011;10495;50.922;4.760;2023-10-09T12:21:22;4.75;;;3.05;;
20671;SDS011;10495;50.922;4.760;2023-10-09T12:23:48;4.95;;;2.67;;
20671;SDS011;10495;50.922;4.760;2023-10-09T12:26:14;4.78;;;3.47;;
20671;SDS011;10495;50.922;4.760;2023-10-09T12:28:40;6.03;;;4.03;;
20671;SDS011;10495;50.922;4.760;2023-10-09T12:31:10;7.45;;;4.43;;
20671;SDS011;10495;50.922;4.760;2023-10-09T12:33:46;5.15;;;3.90;;
20671;SDS011;10495;50.922;4.760;2023-10-09T12:36:12;4.53;;;2.70;;
20671;SDS011;10495;50.922;4.760;2023-10-09T12:38:44;5.03;;;3.47;;
20671;SDS011;10495;50.922;4.760;2023-10-09T12:41:15;6.70;;;4.10;;
20671;SDS011;10495;50.922;4.760;2023-10-09T12:43:50;5.43;;;3.45;;
20671;SDS011;10495;50.922;4.760;2023-10-09T12:46:17;9.98;;;5.05;;
20671;SDS011;10495;50.922;4.760;2023-10-09T12:48:47;5.85;;;3.15;;
20671;SDS011;10495;50.922;4.760;2023-10-09T12:51:14;8.02;;;3.88;;
20671;SDS011;10495;50.922;4.760;2023-10-09T12:53:43;6.38;;;3.83;;
20671;SDS011;10495;50.922;4.760;2023-10-09T12:56:10;6.97;;;3.78;;
20671;SDS011;10495;50.922;4.760;2023-10-09T12:58:41;5.68;;;3.85;;
20671;SDS011;10495;50.922;4.760;2023-10-09T13:01:17;8.80;;;3.60;;
20671;SDS011;10495;50.922;4.760;2023-10-09T13:03:45;4.38;;;2.80;;
20671;SDS011;10495;50.922;4.760;2023-10-09T13:06:14;4.97;;;3.72;;
20671;SDS011;10495;50.922;4.760;2023-10-09T13:08:40;6.60;;;4.22;;
20671;SDS011;10495;50.922;4.760;2023-10-09T13:11:10;6.47;;;4.15;;
20671;SDS011;10495;50.922;4.760;2023-10-09T13:13:40;7.03;;;3.83;;
20671;SDS011;10495;50.922;4.760;2023-10-09T13:16:11;5.13;;;3.90;;
20671;SDS011;10495;50.922;4.760;2023-10-09T13:18:38;9.10;;;3.60;;
20671;SDS011;10495;50.922;4.760;2023-10-09T13:21:05;8.02;;;4.22;;
20671;SDS011;10495;50.922;4.760;2023-10-09T13:23:31;4.95;;;3.58;;
20671;SDS011;10495;50.922;4.760;2023-10-09T13:26:11;5.63;;;4.03;;
20671;SDS011;10495;50.922;4.760;2023-10-09T13:28:48;6.07;;;3.38;;
20671;SDS011;10495;50.922;4.760;2023-10-09T13:31:15;5.47;;;3.60;;
20671;SDS011;10495;50.922;4.760;2023-10-09T13:33:42;4.70;;;3.88;;
20671;SDS011;10495;50.922;4.760;2023-10-09T13:36:09;10.27;;;4.65;;
20671;SDS011;10495;50.922;4.760;2023-10-09T13:38:52;9.77;;;3.92;;
20671;SDS011;10495;50.922;4.760;2023-10-09T13:41:21;7.53;;;5.43;;
20671;SDS011;10495;50.922;4.760;2023-10-09T13:43:51;10.20;;;5.30;;
20671;SDS011;10495;50.922;4.760;2023-10-09T13:46:18;6.28;;;3.72;;
20671;SDS011;10495;50.922;4.760;2023-10-09T13:48:43;6.60;;;4.00;;
20671;SDS011;10495;50.922;4.760;2023-10-09T13:51:11;6.93;;;4.72;;
20671;SDS011;10495;50.922;4.760;2023-10-09T13:53:44;11.15;;;4.95;;
20671;SDS011;10495;50.922;4.760;2023-10-09T13:56:14;6.65;;;4.60;;
20671;SDS011;10495;50.922;4.760;2023-10-09T13:58:49;6.70;;;4.57;;
20671;SDS011;10495;50.922;4.760;2023-10-09T14:01:20;6.38;;;3.88;;
20671;SDS011;10495;50.922;4.760;2023-10-09T14:03:55;10.15;;;5.03;;
20671;SDS011;10495;50.922;4.760;2023-10-09T14:06:22;5.25;;;3.53;;
20671;SDS011;10495;50.922;4.760;2023-10-09T14:08:58;7.18;;;4.63;;
20671;SDS011;10495;50.922;4.760;2023-10-09T14:11:24;7.13;;;4.68;;
20671;SDS011;10495;50.922;4.760;2023-10-09T14:13:51;5.47;;;3.78;;
20671;SDS011;10495;50.922;4.760;2023-10-09T14:16:17;8.68;;;4.85;;
20671;SDS011;10495;50.922;4.760;2023-10-09T14:18:51;10.20;;;4.40;;
20671;SDS011;10495;50.922;4.760;2023-10-09T14:21:19;5.50;;;4.45;;
20671;SDS011;10495;50.922;4.760;2023-10-09T14:23:45;5.43;;;4.35;;
20671;SDS011;10495;50.922;4.760;2023-10-09T14:26:13;9.23;;;4.47;;
20671;SDS011;10495;50.922;4.760;2023-10-09T14:28:40;6.88;;;3.88;;
20671;SDS011;10495;50.922;4.760;2023-10-09T14:31:07;8.10;;;4.43;;
20671;SDS011;10495;50.922;4.760;2023-10-09T14:33:37;8.35;;;5.28;;
20671;SDS011;10495;50.922;4.760;2023-10-09T14:36:03;6.70;;;4.13;;
20671;SDS011;10495;50.922;4.760;2023-10-09T14:38:30;7.78;;;4.63;;
20671;SDS011;10495;50.922;4.760;2023-10-09T14:40:58;10.55;;;5.35;;
20671;SDS011;10495;50.922;4.760;2023-10-09T14:43:25;5.60;;;4.05;;
20671;SDS011;10495;50.922;4.760;2023-10-09T14:45:58;7.43;;;4.22;;
20671;SDS011;10495;50.922;4.760;2023-10-09T14:48:24;7.18;;;4.45;;
20671;SDS011;10495;50.922;4.760;2023-10-09T14:50:55;5.68;;;4.15;;
20671;SDS011;10495;50.922;4.760;2023-10-09T14:53:29;6.80;;;4.47;;
20671;SDS011;10495;50.922;4.760;2023-10-09T14:55:55;6.40;;;4.40;;
20671;SDS011;10495;50.922;4.760;2023-10-09T14:58:22;7.53;;;4.97;;
20671;SDS011;10495;50.922;4.760;2023-10-09T15:00:51;6.30;;;4.35;;
20671;SDS011;10495;50.922;4.760;2023-10-09T15:03:17;7.63;;;4.28;;
20671;SDS011;10495;50.922;4.760;2023-10-09T15:05:45;8.35;;;4.85;;
20671;SDS011;10495;50.922;4.760;2023-10-09T15:08:11;6.85;;;4.50;;
20671;SDS011;10495;50.922;4.760;2023-10-09T15:10:46;5.93;;;3.95;;
20671;SDS011;10495;50.922;4.760;2023-10-09T15:13:13;7.15;;;4.00;;
20671;SDS011;10495;50.922;4.760;2023-10-09T15:15:44;5.55;;;3.63;;
20671;SDS011;10495;50.922;4.760;2023-10-09T15:18:10;8.95;;;4.95;;
20671;SDS011;10495;50.922;4.760;2023-10-09T15:20:39;8.55;;;4.13;;
20671;SDS011;10495;50.922;4.760;2023-10-09T15:23:06;7.43;;;4.20;;
20671;SDS011;10495;50.922;4.760;2023-10-09T15:25:32;4.90;;;2.72;;
20671;SDS011;10495;50.922;4.760;2023-10-09T15:27:59;3.47;;;2.85;;
20671;SDS011;10495;50.922;4.760;2023-10-09T15:30:27;6.45;;;3.42;;
20671;SDS011;10495;50.922;4.760;2023-10-09T15:32:54;6.50;;;4.15;;
20671;SDS011;10495;50.922;4.760;2023-10-09T15:35:22;5.13;;;3.67;;
20671;SDS011;10495;50.922;4.760;2023-10-09T15:37:51;3.67;;;2.78;;
20671;SDS011;10495;50.922;4.760;2023-10-09T15:40:18;3.55;;;3.05;;
20671;SDS011;10495;50.922;4.760;2023-10-09T15:42:49;4.10;;;3.13;;
20671;SDS011;10495;50.922;4.760;2023-10-09T15:45:16;5.10;;;2.90;;
20671;SDS011;10495;50.922;4.760;2023-10-09T15:47:49;4.47;;;2.70;;
20671;SDS011;10495;50.922;4.760;2023-10-09T15:50:16;3.70;;;2.20;;
20671;SDS011;10495;50.922;4.760;2023-10-09T15:52:42;2.83;;;1.83;;
20671;SDS011;10495;50.922;4.760;2023-10-09T15:55:08;4.88;;;3.17;;
20671;SDS011;10495;50.922;4.760;2023-10-09T15:57:41;5.53;;;2.95;;
20671;SDS011;10495;50.922;4.760;2023-10-09T16:00:07;5.25;;;3.00;;
20671;SDS011;10495;50.922;4.760;2023-10-09T16:02:42;3.13;;;2.33;;